Time;durP1;ratioP1;P1;durP2;ratioP2;P2;SDS_P1;SDS_P2;PMS_P1;PMS_P2;Temp;Humidity;BMP_temperature;BMP_pressure;BME280_temperature;BME280_humidity;BME280_pressure;Samples;Min_cycle;Max_cycle;Signal;HPM_P1;HPM_P2
2022/01/02 00:01:00;;;;;;;8.30;5.20;;;13.20;87.20;;;;;;4967154;28;20050;-65
2022/01/02 00:03:33;;;;;;;7.30;5.00;;;13.10;87.00;;;;;;4960271;28;20081;-64
2022/01/02 00:06:01;;;;;;;7.05;5.03;;;13.20;87.60;;;;;;4954078;28;20038;-66
2022/01/02 00:08:29;;;;;;;7.72;4.70;;;13.20;87.40;;;;;;4934361;28;20066;-64
2022/01/02 00:10:58;;;;;;;7.75;4.60;;;13.30;87.60;;;;;;4962762;28;20499;-64
2022/01/02 00:13:31;;;;;;;6.50;4.90;;;13.30;87.30;;;;;;4954388;28;20034;-64
2022/01/02 00:16:03;;;;;;;7.40;5.07;;;13.20;86.90;;;;;;4953720;28;20556;-65
2022/01/02 00:18:34;;;;;;;7.68;5.47;;;13.10;87.30;;;;;;4953717;28;20418;-65
2022/01/02 00:21:02;;;;;;;9.25;5.47;;;13.10;88.00;;;;;;4954004;28;20026;-64
2022/01/02 00:23:33;;;;;;;9.63;5.30;;;13.10;87.80;;;;;;4934383;29;20031;-64
2022/01/02 00:26:04;;;;;;;9.77;5.80;;;13.00;88.00;;;;;;4963405;28;20108;-65
2022/01/02 00:28:32;;;;;;;7.30;5.47;;;13.10;87.90;;;;;;4954009;28;20037;-65
2022/01/02 00:30:58;;;;;;;7.53;5.05;;;13.00;87.80;;;;;;4953259;28;20555;-65
2022/01/02 00:33:25;;;;;;;7.00;5.07;;;13.10;88.40;;;;;;4953636;28;20110;-65
2022/01/02 00:35:51;;;;;;;8.75;4.70;;;13.10;87.80;;;;;;4951354;28;20113;-65
2022/01/02 00:38:20;;;;;;;7.72;4.80;;;13.10;87.60;;;;;;4950244;28;20130;-64
2022/01/02 00:40:48;;;;;;;6.80;4.90;;;13.20;87.80;;;;;;4966871;28;20092;-64
2022/01/02 00:43:22;;;;;;;7.88;4.60;;;13.10;87.50;;;;;;4954761;28;20065;-65
2022/01/02 00:45:52;;;;;;;7.75;5.07;;;13.10;87.70;;;;;;4952034;28;20073;-65
2022/01/02 00:48:24;;;;;;;7.75;4.93;;;13.10;87.60;;;;;;4953482;28;20077;-65
2022/01/02 00:50:52;;;;;;;6.00;4.47;;;13.00;87.80;;;;;;4951898;28;20034;-64
2022/01/02 00:53:19;;;;;;;9.05;4.65;;;13.10;88.10;;;;;;4950135;28;20089;-64
2022/01/02 00:55:57;;;;;;;8.88;5.00;;;13.10;88.10;;;;;;4955394;28;20030;-64
2022/01/02 00:58:59;;;;;;;8.63;4.55;;;13.10;87.70;;;;;;4953433;28;20067;-65
2022/01/02 01:01:32;;;;;;;8.18;4.15;;;13.10;87.90;;;;;;5009473;28;20034;-65
2022/01/02 01:04:00;;;;;;;7.85;4.32;;;13.20;87.60;;;;;;5009207;28;20514;-65
2022/01/02 01:06:31;;;;;;;8.13;4.20;;;13.30;87.80;;;;;;4992382;28;20498;-65
2022/01/02 01:09:01;;;;;;;6.65;4.45;;;13.20;87.30;;;;;;5009163;28;20034;-65
2022/01/02 01:11:28;;;;;;;7.43;4.13;;;13.30;87.40;;;;;;4989470;28;20093;-65
2022/01/02 01:13:56;;;;;;;6.57;3.88;;;13.20;87.20;;;;;;4987046;28;20126;-65
2022/01/02 01:16:22;;;;;;;6.75;4.45;;;13.30;87.10;;;;;;4989175;28;20031;-64
2022/01/02 01:18:48;;;;;;;5.97;4.30;;;13.20;87.30;;;;;;4989212;28;20046;-64
2022/01/02 01:21:14;;;;;;;7.03;4.32;;;13.30;87.50;;;;;;4989240;28;20022;-65
2022/01/02 01:23:41;;;;;;;7.07;4.13;;;13.20;86.90;;;;;;4989648;28;20538;-64
2022/01/02 01:26:09;;;;;;;5.05;3.70;;;13.20;87.40;;;;;;4989719;28;20037;-65
2022/01/02 01:28:35;;;;;;;7.70;4.28;;;13.30;87.50;;;;;;4989634;28;20035;-65
2022/01/02 01:31:01;;;;;;;7.07;3.78;;;13.10;87.20;;;;;;4989360;28;20551;-64
2022/01/02 01:33:27;;;;;;;7.30;4.10;;;13.20;87.80;;;;;;4989499;28;20109;-64
2022/01/02 01:35:52;;;;;;;6.85;3.83;;;13.20;87.60;;;;;;4985030;28;20114;-65
2022/01/02 01:38:18;;;;;;;6.03;3.95;;;13.20;87.20;;;;;;4924883;28;20132;-65
2022/01/02 01:40:56;;;;;;;6.55;3.38;;;13.30;87.60;;;;;;4928656;29;20024;-64
2022/01/02 01:43:37;;;;;;;6.50;3.40;;;13.40;87.30;;;;;;4918084;29;20509;-64
2022/01/02 01:46:04;;;;;;;9.15;3.38;;;13.40;87.50;;;;;;4916087;28;20481;-64
2022/01/02 01:48:31;;;;;;;5.35;3.05;;;13.50;87.10;;;;;;4917517;28;20078;-65
2022/01/02 01:50:56;;;;;;;6.40;3.05;;;13.40;87.10;;;;;;4917508;28;20026;-64
2022/01/02 01:53:22;;;;;;;6.93;3.17;;;13.50;86.80;;;;;;4913471;28;20029;-64
2022/01/02 01:55:49;;;;;;;7.30;3.33;;;13.60;86.70;;;;;;4918937;29;20024;-64
2022/01/02 01:58:15;;;;;;;7.47;3.15;;;13.60;86.50;;;;;;4917707;28;20547;-64
2022/01/02 02:00:42;;;;;;;6.90;2.67;;;13.60;86.40;;;;;;4917670;28;20027;-64
2022/01/02 02:03:08;;;;;;;7.85;3.20;;;13.60;86.60;;;;;;4917265;28;20083;-64
2022/01/02 02:05:33;;;;;;;7.53;3.67;;;13.60;86.40;;;;;;4914284;28;20504;-64
2022/01/02 02:07:59;;;;;;;6.18;3.00;;;13.60;86.00;;;;;;4918671;28;20032;-64
2022/01/02 02:10:34;;;;;;;6.25;2.85;;;13.60;86.40;;;;;;4924172;28;20104;-64
2022/01/02 02:13:02;;;;;;;7.55;2.72;;;13.60;86.00;;;;;;4955647;28;20077;-64
2022/01/02 02:15:28;;;;;;;8.40;3.00;;;13.60;86.10;;;;;;4955745;28;20039;-64
2022/01/02 02:17:53;;;;;;;8.00;3.05;;;13.60;86.10;;;;;;4949032;28;20395;-65
2022/01/02 02:20:24;;;;;;;5.22;2.60;;;13.60;86.20;;;;;;4938700;28;20035;-64
2022/01/02 02:22:53;;;;;;;5.55;2.90;;;13.60;86.10;;;;;;4957691;28;20036;-64
2022/01/02 02:25:21;;;;;;;8.95;3.05;;;13.60;86.10;;;;;;4955551;28;20416;-64
2022/01/02 02:27:52;;;;;;;6.88;3.05;;;13.60;86.00;;;;;;4955405;28;20392;-64
2022/01/02 02:30:19;;;;;;;6.38;3.15;;;13.50;86.00;;;;;;4955050;28;20497;-65
2022/01/02 02:32:45;;;;;;;7.25;2.88;;;13.60;86.30;;;;;;4950150;28;20496;-65
2022/01/02 02:35:10;;;;;;;7.63;2.95;;;13.60;86.30;;;;;;4953782;28;20074;-64
2022/01/02 02:37:42;;;;;;;6.55;2.53;;;13.60;86.20;;;;;;4955511;28;20480;-64
2022/01/02 02:40:10;;;;;;;7.53;3.13;;;13.60;86.30;;;;;;4961618;28;20023;-64
2022/01/02 02:51:06;;;;;;;4.78;2.70;;;13.60;86.40;;;;;;5011612;28;20045;-64
2022/01/02 02:53:35;;;;;;;7.85;2.60;;;13.60;86.40;;;;;;5010377;28;20032;-64
2022/01/02 02:56:01;;;;;;;6.43;2.75;;;13.60;86.50;;;;;;5011464;28;20072;-64
2022/01/02 03:00:59;;;;;;;8.48;2.85;;;13.60;86.40;;;;;;5010706;28;20088;-64
2022/01/02 03:03:25;;;;;;;4.80;2.20;;;13.60;86.60;;;;;;5010895;28;20099;-64
2022/01/02 03:05:51;;;;;;;7.25;2.88;;;13.60;86.70;;;;;;5011288;28;20026;-64
2022/01/02 03:08:17;;;;;;;8.68;3.00;;;13.60;86.90;;;;;;5011017;28;20554;-64
2022/01/02 03:10:43;;;;;;;4.82;2.42;;;13.60;86.90;;;;;;5011336;28;20124;-64
2022/01/02 03:13:08;;;;;;;9.32;2.60;;;13.60;86.90;;;;;;5010776;28;20080;-64
2022/01/02 03:15:34;;;;;;;8.50;2.60;;;13.60;86.70;;;;;;5010404;28;20071;-65
2022/01/02 03:18:00;;;;;;;9.07;2.63;;;13.70;87.10;;;;;;5010772;28;20124;-64
2022/01/02 03:20:25;;;;;;;5.68;2.30;;;13.70;87.10;;;;;;5010959;28;20087;-64
2022/01/02 03:22:51;;;;;;;7.47;2.53;;;13.80;86.80;;;;;;4953096;28;20036;-64
2022/01/02 03:25:17;;;;;;;7.03;2.95;;;13.80;86.70;;;;;;4953792;28;20062;-64
2022/01/02 03:27:44;;;;;;;7.03;2.38;;;13.80;86.70;;;;;;4954533;28;20038;-65
2022/01/02 03:30:11;;;;;;;7.97;2.40;;;13.80;87.00;;;;;;4954043;28;20029;-64
2022/01/02 03:32:38;;;;;;;6.93;2.38;;;13.80;87.20;;;;;;4947909;28;20024;-64
2022/01/02 03:35:04;;;;;;;6.30;2.42;;;13.80;87.00;;;;;;4954675;28;20507;-65
2022/01/02 03:37:33;;;;;;;6.85;2.08;;;13.90;87.10;;;;;;4955216;28;20089;-64
2022/01/02 03:39:59;;;;;;;5.45;2.20;;;13.90;87.30;;;;;;4959455;28;20408;-64
2022/01/02 03:42:25;;;;;;;5.40;2.05;;;13.90;87.30;;;;;;4951002;28;20023;-64
2022/01/02 03:44:51;;;;;;;4.80;2.15;;;13.90;87.30;;;;;;4952734;28;20027;-64
2022/01/02 03:47:17;;;;;;;7.03;2.15;;;14.00;87.50;;;;;;4951432;28;20373;-64
2022/01/02 03:49:43;;;;;;;10.35;2.45;;;14.00;87.60;;;;;;4956267;28;20034;-63
2022/01/02 03:52:09;;;;;;;5.70;2.22;;;14.00;87.60;;;;;;4962162;28;20030;-64
2022/01/02 03:54:35;;;;;;;4.32;1.80;;;14.00;87.70;;;;;;4960436;28;20031;-64
2022/01/02 03:57:01;;;;;;;8.43;2.38;;;14.10;87.80;;;;;;4954218;28;20065;-64
2022/01/02 03:59:27;;;;;;;6.07;1.83;;;14.10;87.50;;;;;;4934265;28;20063;-64
2022/01/02 04:01:52;;;;;;;6.20;2.00;;;14.10;87.50;;;;;;4955966;28;20106;-64
2022/01/02 04:04:18;;;;;;;5.57;2.00;;;14.10;87.60;;;;;;4953512;28;20051;-64
2022/01/02 04:06:44;;;;;;;5.65;2.70;;;14.10;87.70;;;;;;4954071;28;20027;-64
2022/01/02 04:09:09;;;;;;;6.22;2.10;;;14.10;87.50;;;;;;4954026;28;20031;-64
2022/01/02 04:11:35;;;;;;;5.63;2.00;;;14.10;87.60;;;;;;4940791;28;20043;-64
2022/01/02 04:14:01;;;;;;;5.90;2.00;;;14.10;87.70;;;;;;4954318;28;20492;-64
2022/01/02 04:16:26;;;;;;;5.65;2.00;;;14.10;87.80;;;;;;4953054;28;20035;-64
2022/01/02 04:18:52;;;;;;;5.75;2.53;;;14.10;87.70;;;;;;4952501;28;20046;-64
2022/01/02 04:21:18;;;;;;;5.93;2.28;;;14.20;87.60;;;;;;4953960;28;20051;-64
2022/01/02 04:23:44;;;;;;;6.60;2.00;;;14.20;87.70;;;;;;4938282;28;20039;-64
2022/01/02 04:26:10;;;;;;;7.32;1.83;;;14.20;88.00;;;;;;4952718;28;20384;-64
2022/01/02 04:28:36;;;;;;;4.65;1.95;;;14.10;87.80;;;;;;4953638;28;20080;-64
2022/01/02 04:31:02;;;;;;;4.22;1.58;;;14.10;87.80;;;;;;4953590;28;20023;-64
2022/01/02 04:33:27;;;;;;;5.45;2.00;;;14.10;88.00;;;;;;4953665;28;20178;-64
2022/01/02 04:35:53;;;;;;;5.35;1.95;;;14.10;87.90;;;;;;4952754;28;20018;-64
2022/01/02 04:38:19;;;;;;;5.88;1.98;;;14.10;88.10;;;;;;4949761;28;20036;-64
2022/01/02 04:40:45;;;;;;;7.00;1.88;;;14.10;88.10;;;;;;4954333;28;20113;-64
2022/01/02 04:43:10;;;;;;;5.53;1.95;;;14.10;88.30;;;;;;4953184;28;20118;-64
2022/01/02 04:45:36;;;;;;;6.53;1.90;;;14.10;88.00;;;;;;4953791;28;20106;-64
2022/01/02 04:48:02;;;;;;;6.13;1.77;;;14.00;88.00;;;;;;4953677;28;20373;-64
2022/01/02 04:50:27;;;;;;;5.78;1.80;;;14.00;88.40;;;;;;4949597;28;20036;-64
2022/01/02 04:52:53;;;;;;;8.15;2.10;;;14.10;88.40;;;;;;4955665;28;20038;-64
2022/01/02 04:55:19;;;;;;;6.32;1.90;;;14.10;88.50;;;;;;4953555;28;20106;-64
2022/01/02 04:57:45;;;;;;;5.45;1.70;;;14.10;88.60;;;;;;4953222;28;20019;-64
2022/01/02 05:00:11;;;;;;;5.20;1.67;;;14.10;88.40;;;;;;4953493;28;20114;-64
2022/01/02 05:02:36;;;;;;;6.28;1.80;;;14.10;88.40;;;;;;4950343;28;20031;-64
2022/01/02 05:05:03;;;;;;;4.78;1.70;;;14.10;88.70;;;;;;4953855;28;20031;-64
2022/01/02 05:07:29;;;;;;;3.67;1.52;;;14.10;88.90;;;;;;4954100;28;20105;-64
2022/01/02 05:09:55;;;;;;;3.15;1.40;;;14.10;88.30;;;;;;4953484;28;20455;-64
2022/01/02 05:12:20;;;;;;;5.90;1.83;;;14.10;88.60;;;;;;4952824;28;20042;-64
2022/01/02 05:14:46;;;;;;;5.47;1.45;;;14.10;88.40;;;;;;4951558;28;20031;-64
2022/01/02 05:17:12;;;;;;;3.97;1.67;;;14.00;88.50;;;;;;4954793;28;20051;-64
2022/01/02 05:19:37;;;;;;;3.78;1.50;;;14.00;88.80;;;;;;4958370;28;20110;-64
2022/01/02 05:22:03;;;;;;;4.90;1.45;;;14.00;88.60;;;;;;4956693;28;20054;-64
2022/01/02 05:24:29;;;;;;;5.53;1.65;;;14.10;89.00;;;;;;4956472;28;20043;-64
2022/01/02 05:26:55;;;;;;;8.10;1.83;;;14.10;89.20;;;;;;4955295;28;20483;-64
2022/01/02 05:29:22;;;;;;;5.47;1.73;;;14.10;88.80;;;;;;4953212;28;20036;-64
2022/01/02 05:31:47;;;;;;;5.28;1.77;;;14.10;89.00;;;;;;4958363;28;20019;-64
2022/01/02 05:34:13;;;;;;;6.30;1.63;;;14.10;89.00;;;;;;4956463;28;20053;-66
2022/01/02 05:36:39;;;;;;;5.20;1.60;;;14.10;89.10;;;;;;4955066;28;20024;-64
2022/01/02 05:39:05;;;;;;;6.85;1.30;;;14.10;88.90;;;;;;4956327;28;20088;-64
2022/01/02 05:41:32;;;;;;;4.50;1.20;;;14.10;89.00;;;;;;4952173;28;20024;-64
2022/01/02 05:43:58;;;;;;;3.90;1.45;;;14.10;89.30;;;;;;4957737;28;20126;-64
2022/01/02 05:46:24;;;;;;;6.43;1.45;;;14.10;90.00;;;;;;4953776;28;20131;-64
2022/01/02 05:48:52;;;;;;;7.13;1.65;;;14.10;88.90;;;;;;4956319;28;20032;-64
2022/01/02 05:51:18;;;;;;;5.47;1.30;;;14.10;88.80;;;;;;4956233;28;20040;-64
2022/01/02 05:53:43;;;;;;;5.47;1.20;;;14.10;89.20;;;;;;4953938;28;20484;-64
2022/01/02 05:56:09;;;;;;;4.47;1.13;;;14.10;90.00;;;;;;4954488;28;20068;-64
2022/01/02 05:58:35;;;;;;;4.45;1.20;;;14.10;89.00;;;;;;4956125;28;20565;-64
2022/01/02 06:01:01;;;;;;;3.55;0.77;;;14.10;88.70;;;;;;4956065;28;20114;-64
2022/01/02 06:03:26;;;;;;;6.32;1.10;;;14.10;88.90;;;;;;4956002;28;20046;-64
2022/01/02 06:05:52;;;;;;;4.65;1.45;;;14.10;88.80;;;;;;4954864;28;20034;-64
2022/01/02 06:08:18;;;;;;;3.83;0.93;;;14.10;89.00;;;;;;4952859;28;20032;-65
2022/01/02 06:10:43;;;;;;;7.25;1.33;;;14.10;89.00;;;;;;4957346;28;20047;-64
2022/01/02 06:13:09;;;;;;;6.22;1.13;;;14.10;89.00;;;;;;4955900;28;20035;-64
2022/01/02 06:15:35;;;;;;;4.75;1.05;;;14.10;89.40;;;;;;4955967;28;20045;-65
2022/01/02 06:18:01;;;;;;;4.10;1.00;;;14.10;89.20;;;;;;4955734;28;20502;-65
2022/01/02 06:20:27;;;;;;;6.50;1.08;;;14.10;89.40;;;;;;4950289;28;20554;-64
2022/01/02 06:22:54;;;;;;;4.85;1.02;;;14.10;89.30;;;;;;4956436;28;20031;-64
2022/01/02 06:25:21;;;;;;;5.30;0.85;;;14.10;89.10;;;;;;4955379;28;20039;-64
2022/01/02 06:27:48;;;;;;;6.80;1.65;;;14.10;89.10;;;;;;4954202;28;20110;-64
2022/01/02 06:30:14;;;;;;;4.82;1.20;;;14.20;89.00;;;;;;4954357;28;20026;-64
2022/01/02 06:32:40;;;;;;;5.40;1.10;;;14.20;88.90;;;;;;4952631;28;20039;-64
2022/01/02 06:35:06;;;;;;;4.05;0.98;;;14.20;88.80;;;;;;4955482;28;20031;-64
2022/01/02 06:37:32;;;;;;;6.03;1.40;;;14.20;89.10;;;;;;4956547;28;20039;-64
2022/01/02 06:39:57;;;;;;;7.82;2.42;;;14.20;89.30;;;;;;4955062;28;20034;-64
2022/01/02 06:42:23;;;;;;;4.07;1.13;;;14.20;89.30;;;;;;4955318;28;20487;-64
2022/01/02 06:44:49;;;;;;;6.43;1.58;;;14.20;89.00;;;;;;4953991;28;20042;-64
2022/01/02 06:47:15;;;;;;;7.30;1.23;;;14.10;89.40;;;;;;4952710;28;20118;-64
2022/01/02 06:49:41;;;;;;;7.85;1.20;;;14.10;89.30;;;;;;4957409;28;20035;-64
2022/01/02 06:52:07;;;;;;;5.68;0.82;;;14.10;90.00;;;;;;4955311;28;20473;-63
2022/01/02 06:54:33;;;;;;;9.23;1.02;;;14.10;89.40;;;;;;4955008;28;20055;-64
2022/01/02 06:56:59;;;;;;;5.38;0.93;;;14.10;89.40;;;;;;4954827;28;20053;-64
2022/01/02 06:59:25;;;;;;;3.78;1.27;;;14.10;89.50;;;;;;4951428;28;20035;-64
2022/01/02 07:01:50;;;;;;;4.18;0.88;;;14.10;89.50;;;;;;4957282;28;20027;-64
2022/01/02 07:04:16;;;;;;;4.75;1.00;;;14.10;89.60;;;;;;4955020;28;20046;-64
2022/01/02 07:06:42;;;;;;;5.03;0.77;;;14.10;89.80;;;;;;4954105;28;20026;-64
2022/01/02 07:09:07;;;;;;;6.05;1.88;;;14.20;89.90;;;;;;4954614;28;20038;-64
2022/01/02 07:11:33;;;;;;;6.60;1.92;;;14.10;89.90;;;;;;4951150;28;20451;-64
2022/01/02 07:13:59;;;;;;;3.92;1.10;;;14.10;89.80;;;;;;4956325;28;20465;-64
2022/01/02 07:16:24;;;;;;;5.82;1.00;;;14.10;89.90;;;;;;4955087;28;20408;-64
2022/01/02 07:18:50;;;;;;;6.13;1.08;;;14.10;89.80;;;;;;4954945;28;20023;-64
2022/01/02 07:21:17;;;;;;;5.55;0.90;;;14.10;89.70;;;;;;4954910;28;20035;-64
2022/01/02 07:23:44;;;;;;;4.68;0.88;;;14.10;90.00;;;;;;4952094;28;20050;-64
2022/01/02 07:26:09;;;;;;;3.42;0.65;;;14.10;89.90;;;;;;4953798;28;20473;-64
2022/01/02 07:28:35;;;;;;;6.95;0.90;;;14.10;90.00;;;;;;4955937;28;20073;-65
2022/01/02 07:31:01;;;;;;;3.85;0.85;;;14.10;89.90;;;;;;4954641;28;20038;-65
2022/01/02 07:33:27;;;;;;;5.75;1.05;;;14.10;90.10;;;;;;4954854;28;20464;-64
2022/01/02 07:35:53;;;;;;;6.38;1.30;;;14.00;90.00;;;;;;4953586;28;20117;-64
2022/01/02 07:38:18;;;;;;;6.47;1.13;;;14.00;90.20;;;;;;4950788;28;20447;-64
2022/01/02 07:40:44;;;;;;;5.60;1.00;;;14.00;90.10;;;;;;4956521;28;20037;-64
2022/01/02 07:43:10;;;;;;;4.43;0.90;;;13.90;90.00;;;;;;4954541;28;20023;-64
2022/01/02 07:45:35;;;;;;;7.15;1.15;;;14.00;90.20;;;;;;4954483;28;20035;-64
2022/01/02 07:48:01;;;;;;;4.78;1.15;;;14.00;90.20;;;;;;4954564;28;20023;-64
2022/01/02 07:50:27;;;;;;;5.78;1.05;;;14.00;90.30;;;;;;4950294;28;20027;-64
2022/01/02 07:52:52;;;;;;;4.35;0.90;;;14.00;90.30;;;;;;4956072;28;20035;-64
2022/01/02 07:55:19;;;;;;;5.68;1.00;;;14.00;90.40;;;;;;4954323;28;20074;-64
2022/01/02 07:57:45;;;;;;;3.70;1.05;;;14.00;90.20;;;;;;4954324;28;20115;-64
2022/01/02 08:00:11;;;;;;;5.18;1.00;;;14.00;90.50;;;;;;4953271;28;20105;-64
2022/01/02 08:02:37;;;;;;;7.88;1.40;;;14.00;90.20;;;;;;4950945;28;20046;-65
2022/01/02 08:05:03;;;;;;;4.15;1.00;;;14.00;90.50;;;;;;4954401;28;20412;-64
2022/01/02 08:07:29;;;;;;;5.55;0.90;;;14.00;90.40;;;;;;4954513;28;20089;-64
2022/01/02 08:09:54;;;;;;;6.40;1.00;;;14.00;90.40;;;;;;4954074;28;20388;-64
2022/01/02 08:12:20;;;;;;;7.93;1.10;;;14.10;90.50;;;;;;4953987;28;20058;-64
2022/01/02 08:14:45;;;;;;;7.05;1.00;;;14.10;90.40;;;;;;4951947;28;20038;-64
2022/01/02 08:17:11;;;;;;;5.90;1.00;;;14.10;90.40;;;;;;4952477;28;20459;-64
2022/01/02 08:19:37;;;;;;;4.88;0.90;;;14.00;90.40;;;;;;4955610;28;20073;-64
2022/01/02 08:22:02;;;;;;;5.88;1.13;;;14.00;90.40;;;;;;4953546;28;20034;-64
2022/01/02 08:24:28;;;;;;;7.15;1.00;;;14.00;90.40;;;;;;4953903;28;20439;-64
2022/01/02 08:26:53;;;;;;;5.32;1.05;;;13.90;90.20;;;;;;4952720;28;20030;-64
2022/01/02 08:29:19;;;;;;;3.38;0.80;;;14.00;90.40;;;;;;4950849;28;20054;-65
2022/01/02 08:31:45;;;;;;;6.10;1.17;;;14.00;90.50;;;;;;4956089;28;20403;-64
2022/01/02 08:34:10;;;;;;;6.72;1.20;;;14.10;90.40;;;;;;4952660;28;20031;-64
2022/01/02 08:36:36;;;;;;;5.90;1.10;;;14.00;90.40;;;;;;4953616;28;20110;-64
2022/01/02 08:39:02;;;;;;;4.45;1.00;;;14.00;90.40;;;;;;4953918;28;20118;-65
2022/01/02 08:41:28;;;;;;;5.63;1.10;;;14.00;90.50;;;;;;4965357;28;20055;-64
2022/01/02 08:43:53;;;;;;;4.82;0.85;;;14.10;90.50;;;;;;4955647;28;20136;-64
2022/01/02 08:46:19;;;;;;;3.90;0.80;;;14.10;90.90;;;;;;4953648;28;20081;-64
2022/01/02 08:48:45;;;;;;;6.80;1.20;;;14.10;90.50;;;;;;4953698;28;20035;-65
2022/01/02 08:51:12;;;;;;;8.05;0.93;;;14.10;90.40;;;;;;4949709;28;20023;-64
2022/01/02 08:53:38;;;;;;;7.57;1.60;;;14.10;90.40;;;;;;4950323;28;20035;-65
2022/01/02 08:56:04;;;;;;;3.58;0.82;;;14.10;90.50;;;;;;4953748;28;20015;-65
2022/01/02 08:58:30;;;;;;;3.28;0.80;;;14.20;90.50;;;;;;4953983;28;20469;-65
2022/01/02 09:01:00;;;;;;;4.68;0.95;;;14.20;90.50;;;;;;4953594;28;20023;-65
2022/01/02 09:03:26;;;;;;;6.97;1.83;;;14.30;90.60;;;;;;4953257;28;20523;-65
2022/01/02 09:05:52;;;;;;;3.72;1.20;;;14.30;90.40;;;;;;4951659;28;20104;-64
2022/01/02 09:08:18;;;;;;;6.65;1.10;;;14.40;90.30;;;;;;4950467;28;20477;-64
2022/01/02 09:10:44;;;;;;;5.93;1.00;;;14.40;90.10;;;;;;4955218;28;20436;-65
2022/01/02 09:13:09;;;;;;;5.45;1.20;;;14.40;90.30;;;;;;4953536;28;20023;-65
2022/01/02 09:15:36;;;;;;;9.25;2.60;;;14.30;90.10;;;;;;4953301;28;20054;-64
2022/01/02 09:18:03;;;;;;;6.88;1.58;;;14.40;90.20;;;;;;4952936;28;20021;-65
2022/01/02 09:20:32;;;;;;;8.32;1.27;;;14.40;90.20;;;;;;4933797;28;20039;-64
2022/01/02 09:22:58;;;;;;;8.60;2.35;;;14.40;90.20;;;;;;4948498;28;20031;-64
2022/01/02 09:25:24;;;;;;;10.43;2.53;;;14.40;90.20;;;;;;4948786;28;20414;-64
2022/01/02 09:27:58;;;;;;;5.85;1.20;;;14.40;90.30;;;;;;4952048;28;20026;-65
2022/01/02 09:30:28;;;;;;;9.25;1.40;;;14.50;90.20;;;;;;4948266;28;20035;-64
2022/01/02 09:33:01;;;;;;;6.03;1.33;;;14.50;90.10;;;;;;4946888;28;20042;-64
2022/01/02 09:35:27;;;;;;;7.60;1.17;;;14.40;90.10;;;;;;4949450;28;20063;-64
2022/01/02 09:37:52;;;;;;;5.18;1.30;;;14.40;90.00;;;;;;4950180;28;20109;-64
2022/01/02 09:40:19;;;;;;;7.38;1.27;;;14.40;90.00;;;;;;4949224;28;20511;-65
2022/01/02 09:42:44;;;;;;;5.85;1.30;;;14.40;90.10;;;;;;4948092;28;20086;-64
2022/01/02 09:45:13;;;;;;;8.90;1.20;;;14.50;90.20;;;;;;4947764;28;20074;-64
2022/01/02 09:47:40;;;;;;;7.72;1.20;;;14.60;90.40;;;;;;4947883;28;20046;-65
2022/01/02 09:50:09;;;;;;;10.38;1.63;;;14.60;89.70;;;;;;4946714;28;20072;-64
2022/01/02 09:52:36;;;;;;;6.00;1.02;;;14.70;89.00;;;;;;4949106;28;20042;-64
2022/01/02 09:55:02;;;;;;;7.88;1.40;;;14.60;89.60;;;;;;4946991;28;20427;-64
2022/01/02 09:57:27;;;;;;;6.28;1.33;;;14.70;89.70;;;;;;4946803;28;20574;-64
2022/01/02 09:59:55;;;;;;;6.70;1.27;;;14.70;89.70;;;;;;4948232;28;20122;-65
2022/01/02 10:02:21;;;;;;;9.57;2.00;;;14.60;90.10;;;;;;4950287;28;20028;-64
2022/01/02 10:04:47;;;;;;;7.60;2.63;;;14.60;89.60;;;;;;4957398;28;20035;-64
2022/01/02 10:07:33;;;;;;;9.40;1.50;;;14.60;89.60;;;;;;4951137;28;20019;-64
2022/01/02 10:10:08;;;;;;;4.95;1.02;;;14.80;89.70;;;;;;4953347;28;20031;-64
2022/01/02 10:12:37;;;;;;;9.40;1.83;;;14.70;89.50;;;;;;4952771;28;20038;-64
2022/01/02 10:15:14;;;;;;;4.30;0.95;;;14.80;90.00;;;;;;4948849;28;20027;-64
2022/01/02 10:18:03;;;;;;;8.73;2.60;;;14.80;89.30;;;;;;4948156;28;20019;-65
2022/01/02 10:20:42;;;;;;;7.45;1.35;;;14.80;88.90;;;;;;4948098;28;20496;-64
2022/01/02 10:23:40;;;;;;;7.35;1.77;;;14.80;88.80;;;;;;4950037;28;20088;-64
2022/01/02 10:26:08;;;;;;;5.63;1.10;;;14.80;88.90;;;;;;4990103;28;20038;-64
2022/01/02 10:28:39;;;;;;;9.02;1.90;;;14.70;89.50;;;;;;4991969;28;20078;-64
2022/01/02 10:31:15;;;;;;;8.40;1.17;;;14.90;89.80;;;;;;4971950;28;20505;-64
2022/01/02 10:33:51;;;;;;;8.90;1.38;;;15.10;89.90;;;;;;4990780;28;20105;-65
2022/01/02 10:36:25;;;;;;;5.72;1.10;;;15.20;88.60;;;;;;4981877;28;20043;-64
2022/01/02 10:39:20;;;;;;;7.25;1.35;;;15.20;87.80;;;;;;4991086;28;20041;-64
2022/01/02 10:41:48;;;;;;;6.63;1.48;;;15.10;87.80;;;;;;4977248;28;20035;-64
2022/01/02 10:44:33;;;;;;;8.00;1.50;;;15.00;89.00;;;;;;4971846;28;20077;-65
2022/01/02 10:47:17;;;;;;;8.73;1.48;;;15.00;88.10;;;;;;4993512;28;20073;-65
2022/01/02 10:49:52;;;;;;;10.82;1.42;;;15.00;88.10;;;;;;4991926;28;20042;-64
2022/01/02 10:52:29;;;;;;;10.35;1.45;;;15.00;88.20;;;;;;4987414;28;20057;-65
2022/01/02 10:54:58;;;;;;;11.10;1.63;;;14.90;88.20;;;;;;4985179;28;20066;-68
2022/01/02 10:57:24;;;;;;;6.18;1.20;;;14.80;88.00;;;;;;4990279;28;20030;-65
2022/01/02 10:59:55;;;;;;;6.65;1.50;;;14.80;88.40;;;;;;4987646;28;20035;-65
2022/01/02 11:02:23;;;;;;;7.57;1.02;;;14.80;88.30;;;;;;4967993;28;20078;-65
2022/01/02 11:04:55;;;;;;;10.10;1.48;;;14.80;88.50;;;;;;4969717;28;20054;-65
2022/01/02 11:07:23;;;;;;;10.07;2.85;;;14.80;88.50;;;;;;4957389;28;20034;-65
2022/01/02 11:09:52;;;;;;;7.25;1.50;;;14.80;88.70;;;;;;4965156;28;20037;-65
2022/01/02 11:12:18;;;;;;;8.00;1.42;;;14.90;88.60;;;;;;4962916;28;20057;-65
2022/01/02 11:14:44;;;;;;;7.93;1.27;;;14.80;88.20;;;;;;4958613;28;20031;-65
2022/01/02 11:17:11;;;;;;;9.25;1.27;;;14.80;88.10;;;;;;4968592;28;20034;-65
2022/01/02 11:19:37;;;;;;;9.35;1.80;;;14.80;88.00;;;;;;4965233;28;20011;-65
2022/01/02 11:22:05;;;;;;;6.47;1.40;;;14.80;88.40;;;;;;4963454;28;20523;-65
2022/01/02 11:24:38;;;;;;;8.13;1.65;;;14.80;88.10;;;;;;4960985;28;20055;-65
2022/01/02 11:27:19;;;;;;;7.72;1.17;;;14.80;89.20;;;;;;4961996;28;20034;-65
2022/01/02 11:29:45;;;;;;;8.85;1.40;;;14.90;88.20;;;;;;4964156;28;20031;-65
2022/01/02 11:32:25;;;;;;;6.35;1.27;;;14.90;88.00;;;;;;4961122;28;20023;-65
2022/01/02 11:34:52;;;;;;;6.80;1.33;;;14.90;88.10;;;;;;4968665;28;20115;-65
2022/01/02 11:37:21;;;;;;;10.63;1.30;;;15.00;87.70;;;;;;4956176;28;20026;-65
2022/01/02 11:39:55;;;;;;;8.05;1.70;;;15.00;87.80;;;;;;4964706;28;20027;-65
2022/01/02 11:42:42;;;;;;;10.73;1.60;;;15.00;87.50;;;;;;4960680;28;20410;-64
2022/01/02 11:45:23;;;;;;;11.65;1.60;;;15.00;87.50;;;;;;4950923;28;20101;-64
2022/01/02 11:47:49;;;;;;;7.95;1.80;;;15.10;87.30;;;;;;4945704;28;20034;-64
2022/01/02 11:50:30;;;;;;;7.88;1.50;;;15.10;87.30;;;;;;4950641;28;20407;-64
2022/01/02 11:53:14;;;;;;;10.73;1.52;;;15.10;86.90;;;;;;4959355;28;20027;-65
2022/01/02 11:55:46;;;;;;;;;;;15.00;86.90;;;;;;4950135;28;20110;-65
2022/01/02 11:58:12;;;;;;;5.97;1.27;;;15.00;87.00;;;;;;4947778;28;19993;-65
2022/01/02 12:00:46;;;;;;;8.40;1.30;;;14.90;87.10;;;;;;4939687;28;20032;-64
2022/01/02 12:03:30;;;;;;;;;;;14.90;87.10;;;;;;4946500;28;20024;-65
2022/01/02 12:06:22;;;;;;;7.60;1.45;;;15.00;87.50;;;;;;4943456;28;20284;-64
2022/01/02 12:08:53;;;;;;;9.27;1.48;;;15.00;87.10;;;;;;4946364;28;20039;-65
2022/01/02 12:11:38;;;;;;;7.88;1.38;;;15.00;87.20;;;;;;4944545;28;20050;-64
2022/01/02 12:14:06;;;;;;;7.65;1.77;;;15.00;87.20;;;;;;4996079;28;20025;-65
2022/01/02 12:16:41;;;;;;;9.65;1.60;;;15.00;87.00;;;;;;4948300;28;20063;-65
2022/01/02 12:19:08;;;;;;;9.30;1.58;;;14.90;86.80;;;;;;4940928;28;20031;-66
2022/01/02 12:21:35;;;;;;;7.68;1.42;;;14.90;87.00;;;;;;4982709;28;20074;-65
2022/01/02 12:24:03;;;;;;;7.85;1.38;;;15.00;87.50;;;;;;4951691;28;20035;-65
2022/01/02 12:26:39;;;;;;;13.27;4.65;;;15.00;87.20;;;;;;4946663;28;20035;-64
2022/01/02 12:29:12;;;;;;;8.35;1.70;;;15.10;87.10;;;;;;4940976;28;20385;-64
2022/01/02 12:31:44;;;;;;;9.95;1.67;;;15.10;86.60;;;;;;4958910;28;20430;-64
2022/01/02 12:34:22;;;;;;;10.90;1.88;;;15.00;86.90;;;;;;4949256;28;20488;-65
2022/01/02 12:36:52;;;;;;;10.05;1.67;;;15.10;86.60;;;;;;4945612;28;20031;-65
2022/01/02 12:39:30;;;;;;;9.18;1.70;;;15.00;86.40;;;;;;4938616;28;20200;-66
2022/01/02 12:42:08;;;;;;;10.13;1.48;;;15.10;86.70;;;;;;4941120;28;20028;-65
2022/01/02 12:44:35;;;;;;;11.70;1.77;;;15.10;86.70;;;;;;4950517;28;20135;-66
2022/01/02 12:47:06;;;;;;;11.25;1.90;;;15.10;86.50;;;;;;4952258;28;20492;-65
2022/01/02 12:49:36;;;;;;;6.45;1.42;;;15.10;87.00;;;;;;4953222;28;20037;-65
2022/01/02 12:52:07;;;;;;;8.38;1.40;;;15.30;87.30;;;;;;4939641;28;20366;-65
2022/01/02 12:54:38;;;;;;;12.27;1.50;;;15.50;87.10;;;;;;4939200;28;20027;-65
2022/01/02 12:57:09;;;;;;;8.88;1.60;;;15.50;85.40;;;;;;4953159;28;20043;-65
2022/01/02 12:59:36;;;;;;;9.75;1.45;;;15.50;85.60;;;;;;4940747;28;20082;-65
2022/01/02 13:02:04;;;;;;;8.30;1.67;;;15.50;85.30;;;;;;4951875;28;20111;-64